createdAt,value
2022-11-03T00:02:22.243Z,3.33
2022-11-03T00:07:44.868Z,3.50
2022-11-03T00:13:07.229Z,3.77
2022-11-03T00:18:30.398Z,2.90
2022-11-03T00:23:55.143Z,3.50
2022-11-03T00:29:20.413Z,3.17
2022-11-03T00:34:43.030Z,3.47
2022-11-03T00:40:05.225Z,3.02
2022-11-03T00:45:27.993Z,3.20
2022-11-03T00:50:51.762Z,3.37
2022-11-03T00:56:15.609Z,3.40
2022-11-03T01:01:46.698Z,3.33
2022-11-03T01:07:11.224Z,3.07
2022-11-03T01:12:35.043Z,3.12
2022-11-03T01:17:58.892Z,2.95
2022-11-03T01:23:21.381Z,3.00
2022-11-03T01:28:47.786Z,3.15
2022-11-03T01:34:10.921Z,3.30
2022-11-03T01:39:34.774Z,3.33
2022-11-03T01:45:01.836Z,3.17
2022-11-03T01:50:27.327Z,3.27
2022-11-03T01:55:51.186Z,3.43
2022-11-03T02:01:15.408Z,3.87
2022-11-03T02:06:41.008Z,3.03
2022-11-03T02:12:09.922Z,3.47
2022-11-03T02:17:34.415Z,3.17
2022-11-03T02:23:18.629Z,3.37
2022-11-03T02:28:44.400Z,3.50
2022-11-03T02:34:32.724Z,3.97
2022-11-03T02:45:46.236Z,4.93
2022-11-03T02:51:09.719Z,5.10
2022-11-03T02:56:35.094Z,4.42
2022-11-03T03:02:07.316Z,3.90
2022-11-03T03:07:39.450Z,4.70
2022-11-03T03:13:05.137Z,5.20
2022-11-03T03:18:56.192Z,4.57
2022-11-03T03:24:32.018Z,5.00
2022-11-03T03:29:58.765Z,5.07
2022-11-03T03:35:24.725Z,5.30
2022-11-03T03:40:50.942Z,4.85
2022-11-03T03:46:17.269Z,5.47
2022-11-03T03:51:42.845Z,5.50
2022-11-03T03:57:11.257Z,5.40
2022-11-03T04:02:33.501Z,5.40
2022-11-03T04:07:55.714Z,6.33
2022-11-03T04:13:35.977Z,6.45
2022-11-03T04:19:16.498Z,5.80
2022-11-03T04:24:39.070Z,6.17
2022-11-03T04:30:08.514Z,6.03
2022-11-03T04:35:36.182Z,5.63
2022-11-03T04:41:03.789Z,6.30
2022-11-03T04:46:33.038Z,5.75
2022-11-03T04:51:55.561Z,5.03
2022-11-03T04:57:25.070Z,5.00
2022-11-03T05:02:49.150Z,6.00
2022-11-03T05:08:12.921Z,5.85
2022-11-03T05:13:41.534Z,5.80
2022-11-03T05:19:05.559Z,7.60
2022-11-03T05:24:33.445Z,7.70
2022-11-03T05:30:00.729Z,7.00
2022-11-03T05:35:28.113Z,6.87
2022-11-03T05:40:50.354Z,7.25
2022-11-03T05:46:15.972Z,7.37
2022-11-03T05:51:41.889Z,6.53
2022-11-03T05:57:04.071Z,6.00
2022-11-03T06:02:37.183Z,6.70
2022-11-03T06:08:01.345Z,6.57
2022-11-03T06:13:28.531Z,6.57
2022-11-03T06:18:55.327Z,6.72
2022-11-03T06:24:19.832Z,6.90
2022-11-03T06:29:43.709Z,7.03
2022-11-03T06:35:11.829Z,7.53
2022-11-03T06:40:39.366Z,7.33
2022-11-03T06:46:05.178Z,7.97
2022-11-03T06:51:46.268Z,7.67
2022-11-03T06:57:08.503Z,7.87
2022-11-03T07:02:41.625Z,8.17
2022-11-03T07:08:24.802Z,7.83
2022-11-03T07:13:49.206Z,7.25
2022-11-03T07:19:36.906Z,8.17
2022-11-03T07:25:01.957Z,8.10
2022-11-03T07:30:42.052Z,8.63
2022-11-03T07:36:15.653Z,7.17
2022-11-03T07:41:34.633Z,7.97
2022-11-03T07:46:58.771Z,7.90
2022-11-03T07:52:23.600Z,7.53
2022-11-03T07:57:48.431Z,7.87
2022-11-03T08:03:14.977Z,8.03
2022-11-03T08:08:37.203Z,7.70
2022-11-03T08:13:59.562Z,7.78
2022-11-03T08:19:22.866Z,8.35
2022-11-03T08:24:45.242Z,8.30
2022-11-03T08:30:07.611Z,10.60
2022-11-03T08:35:31.623Z,9.55
2022-11-03T08:40:55.304Z,9.20
2022-11-03T08:46:18.568Z,9.47
2022-11-03T08:51:44.363Z,10.40
2022-11-03T08:57:05.050Z,9.60
2022-11-03T09:02:27.318Z,10.55
2022-11-03T09:13:13.657Z,12.53
2022-11-03T09:18:36.231Z,11.68
2022-11-03T09:24:00.124Z,9.58
2022-11-03T09:29:22.841Z,10.20
2022-11-03T09:34:47.105Z,11.23
2022-11-03T09:40:10.162Z,12.03
2022-11-03T09:45:33.349Z,8.83
2022-11-03T09:50:56.161Z,7.57
2022-11-03T09:56:20.400Z,5.50
2022-11-03T10:01:44.190Z,4.75
2022-11-03T10:07:11.709Z,3.87
2022-11-03T10:12:35.670Z,4.90
2022-11-03T10:17:59.299Z,4.28
2022-11-03T10:23:21.653Z,3.83
2022-11-03T10:28:44.824Z,3.52
2022-11-03T10:34:12.042Z,3.53
2022-11-03T10:39:37.730Z,3.27
2022-11-03T10:45:01.130Z,3.10
2022-11-03T10:50:40.660Z,3.80
2022-11-03T10:56:03.285Z,3.87
2022-11-03T11:01:27.308Z,3.20
2022-11-03T11:06:51.626Z,2.95
2022-11-03T11:12:23.271Z,3.15
2022-11-03T11:17:57.773Z,3.50
2022-11-03T11:23:45.036Z,2.80
2022-11-03T11:34:55.001Z,3.40
2022-11-03T11:40:33.691Z,2.77
2022-11-03T11:46:33.731Z,2.70
2022-11-03T11:51:57.487Z,2.70
2022-11-03T11:57:26.098Z,2.83
2022-11-03T12:02:50.939Z,2.60
2022-11-03T12:08:28.238Z,2.60
2022-11-03T12:13:58.946Z,2.57
2022-11-03T12:19:50.161Z,2.47
2022-11-03T12:25:16.479Z,2.43
2022-11-03T12:30:40.267Z,2.47
2022-11-03T12:36:02.806Z,2.27
2022-11-03T12:41:25.764Z,4.20
2022-11-03T12:46:48.276Z,2.75
2022-11-03T12:52:11.622Z,2.30
2022-11-03T12:57:33.813Z,2.40
2022-11-03T13:02:56.210Z,2.72
2022-11-03T13:08:19.249Z,2.77
2022-11-03T13:13:41.430Z,3.02
2022-11-03T13:19:03.622Z,3.08
2022-11-03T13:24:26.046Z,2.95
2022-11-03T13:29:48.781Z,2.72
2022-11-03T13:35:14.000Z,3.17
2022-11-03T13:40:56.391Z,3.12
2022-11-03T13:46:02.021Z,3.90
2022-11-03T13:51:24.283Z,5.42
2022-11-03T14:07:36.597Z,3.62
2022-11-03T14:12:58.862Z,3.83
2022-11-03T14:18:21.095Z,3.37
2022-11-03T14:23:43.273Z,3.83
2022-11-03T14:29:05.563Z,3.42
2022-11-03T14:34:28.011Z,3.65
2022-11-03T14:39:50.763Z,3.03
2022-11-03T14:45:13.706Z,3.77
2022-11-03T14:50:36.710Z,3.17
2022-11-03T14:55:58.981Z,2.95
2022-11-03T15:01:21.361Z,3.33
2022-11-03T15:06:43.936Z,3.03
2022-11-03T15:12:06.117Z,3.72
2022-11-03T15:17:28.357Z,3.10
2022-11-03T15:28:14.618Z,3.52
2022-11-03T15:33:36.805Z,3.27
2022-11-03T15:38:59.170Z,2.95
2022-11-03T15:44:21.366Z,3.33
2022-11-03T15:49:43.973Z,4.10
2022-11-03T15:55:06.427Z,3.60
2022-11-03T16:00:31.149Z,3.37
2022-11-03T16:05:53.344Z,3.98
2022-11-03T16:11:15.668Z,3.45
2022-11-03T16:16:38.501Z,3.80
2022-11-03T16:22:00.829Z,4.05
2022-11-03T16:27:23.394Z,4.30
2022-11-03T16:32:45.725Z,4.65
2022-11-03T16:38:10.702Z,5.00
2022-11-03T16:43:33.062Z,5.75
2022-11-03T16:48:55.801Z,7.20
2022-11-03T16:54:18.054Z,8.98
2022-11-03T16:59:40.261Z,10.05
2022-11-03T17:05:02.443Z,9.60
2022-11-03T17:10:27.235Z,9.93
2022-11-03T17:15:49.809Z,10.20
2022-11-03T17:21:12.064Z,9.50
2022-11-03T17:26:44.172Z,9.63
2022-11-03T17:32:07.377Z,9.05
2022-11-03T17:37:35.643Z,9.38
2022-11-03T17:43:00.252Z,10.50
2022-11-03T17:48:27.133Z,10.00
2022-11-03T17:53:51.984Z,10.35
2022-11-03T17:59:14.894Z,11.18
2022-11-03T18:04:38.634Z,9.43
2022-11-03T18:10:01.444Z,10.00
2022-11-03T18:15:32.163Z,12.13
2022-11-03T18:20:59.820Z,10.43
2022-11-03T18:26:32.627Z,22.30
2022-11-03T18:32:01.962Z,10.68
2022-11-03T18:37:27.624Z,11.53
2022-11-03T18:42:49.997Z,11.30
2022-11-03T18:53:49.156Z,11.20
2022-11-03T18:59:13.050Z,11.33
2022-11-03T19:04:36.691Z,10.53
2022-11-03T19:09:59.494Z,10.77
2022-11-03T19:15:29.823Z,11.70
2022-11-03T19:20:52.293Z,11.83
2022-11-03T19:26:33.538Z,11.30
2022-11-03T19:32:01.573Z,10.93
2022-11-03T19:37:24.515Z,11.55
2022-11-03T19:42:49.018Z,11.77
2022-11-03T19:48:25.050Z,12.25
2022-11-03T19:53:47.344Z,12.87
2022-11-03T19:59:13.120Z,12.25
2022-11-03T20:04:35.301Z,11.85
2022-11-03T20:09:58.061Z,11.53
2022-11-03T20:15:25.796Z,11.33
2022-11-03T20:20:51.520Z,11.60
2022-11-03T20:26:25.667Z,12.78
2022-11-03T20:31:49.360Z,12.05
2022-11-03T20:37:13.930Z,10.50
2022-11-03T20:42:39.746Z,10.68
2022-11-03T20:48:03.641Z,11.00
2022-11-03T20:53:34.952Z,12.45
2022-11-03T20:58:58.560Z,12.50
2022-11-03T21:04:24.152Z,11.90
2022-11-03T21:09:47.797Z,11.30
2022-11-03T21:15:30.638Z,12.73
2022-11-03T21:20:52.830Z,11.23
2022-11-03T21:26:16.454Z,10.10
2022-11-03T21:31:39.207Z,9.60
2022-11-03T21:37:01.382Z,10.38
2022-11-03T21:42:42.211Z,9.60
2022-11-03T21:48:22.776Z,9.03
2022-11-03T21:53:46.949Z,9.40
2022-11-03T21:59:10.839Z,8.80
2022-11-03T22:04:34.136Z,8.78
2022-11-03T22:09:56.824Z,8.55
2022-11-03T22:15:37.474Z,9.30
2022-11-03T22:21:17.382Z,9.28
2022-11-03T22:26:59.896Z,9.00
2022-11-03T22:32:28.394Z,8.30
2022-11-03T22:37:50.890Z,9.53
2022-11-03T22:48:54.958Z,10.80
2022-11-03T22:54:17.193Z,8.93
2022-11-03T22:59:39.371Z,8.37
2022-11-03T23:05:01.584Z,8.47
2022-11-03T23:10:25.529Z,8.43
2022-11-03T23:15:47.713Z,8.63
2022-11-03T23:21:10.523Z,8.07
2022-11-03T23:26:33.843Z,8.55
2022-11-03T23:31:57.744Z,8.68
2022-11-03T23:37:19.991Z,8.17
2022-11-03T23:42:42.163Z,8.63
2022-11-03T23:48:22.403Z,8.58
2022-11-03T23:53:44.568Z,8.80
2022-11-03T23:59:10.842Z,9.78
